Time;durP1;ratioP1;P1;durP2;ratioP2;P2;SDS_P1;SDS_P2;PMS_P1;PMS_P2;Temp;Humidity;BMP_temperature;BMP_pressure;BME280_temperature;BME280_humidity;BME280_pressure;Samples;Min_cycle;Max_cycle;Signal;HPM_P1;HPM_P2
2021/07/25 00:02:09;;;;;;;68.70;43.20;;;17.50;99.00;;;;;;5029427;28;20391;-71
2021/07/25 00:04:34;;;;;;;75.10;45.37;;;17.50;99.00;;;;;;5029968;28;20394;-70
2021/07/25 00:07:00;;;;;;;71.55;44.38;;;17.40;99.40;;;;;;5030549;28;20391;-71
2021/07/25 00:09:25;;;;;;;77.10;46.23;;;17.50;99.90;;;;;;5035297;28;20401;-69
2021/07/25 00:11:51;;;;;;;78.80;44.75;;;17.50;99.90;;;;;;5047647;28;20439;-70
2021/07/25 00:14:17;;;;;;;71.35;43.88;;;17.50;99.90;;;;;;5030962;28;20390;-70
2021/07/25 00:16:43;;;;;;;71.67;44.40;;;17.50;99.90;;;;;;5032072;28;20390;-69
2021/07/25 00:19:12;;;;;;;72.78;45.40;;;17.50;99.90;;;;;;5033098;28;20402;-70
2021/07/25 00:21:38;;;;;;;68.35;43.63;;;17.50;99.90;;;;;;5043798;28;20394;-71
2021/07/25 00:24:03;;;;;;;73.28;44.63;;;17.60;99.90;;;;;;5034675;28;20390;-70
2021/07/25 00:26:35;;;;;;;66.65;44.30;;;17.60;99.90;;;;;;5034385;28;20398;-70
2021/07/25 00:29:01;;;;;;;70.75;45.33;;;17.60;99.90;;;;;;5034119;28;20858;-70
2021/07/25 00:31:29;;;;;;;74.20;44.10;;;17.60;99.90;;;;;;5033834;28;20474;-71
2021/07/25 00:33:55;;;;;;;68.32;44.47;;;17.60;99.90;;;;;;5017033;28;20740;-70
2021/07/25 00:36:21;;;;;;;73.80;44.15;;;17.60;99.90;;;;;;5034223;28;20440;-70
2021/07/25 00:38:46;;;;;;;74.95;43.17;;;17.50;99.90;;;;;;5015514;28;20414;-70
2021/07/25 00:41:15;;;;;;;73.35;46.28;;;17.50;99.90;;;;;;5033886;28;20390;-71
2021/07/25 00:43:43;;;;;;;74.18;44.60;;;17.60;99.90;;;;;;5033511;28;20414;-70
2021/07/25 00:46:11;;;;;;;75.15;45.45;;;17.60;99.90;;;;;;5033988;28;20701;-71
2021/07/25 00:48:37;;;;;;;72.82;44.38;;;17.60;99.90;;;;;;5033553;28;20403;-71
2021/07/25 00:51:05;;;;;;;72.32;44.20;;;17.70;99.90;;;;;;5033823;28;20759;-71
2021/07/25 00:53:34;;;;;;;69.90;44.80;;;17.70;99.90;;;;;;5033361;28;20395;-71
2021/07/25 00:56:00;;;;;;;69.25;42.65;;;17.70;99.90;;;;;;5033779;28;20425;-71
2021/07/25 00:58:26;;;;;;;69.95;43.67;;;17.70;99.90;;;;;;5033744;28;20422;-71
2021/07/25 01:00:52;;;;;;;71.23;43.93;;;17.90;99.90;;;;;;5033603;28;20391;-70
2021/07/25 01:03:48;;;;;;;70.43;44.13;;;17.90;99.90;;;;;;5044832;28;20424;-71
2021/07/25 01:06:24;;;;;;;75.68;44.15;;;17.90;99.90;;;;;;5040209;28;20501;-70
2021/07/25 01:08:59;;;;;;;65.25;43.10;;;17.80;99.90;;;;;;5032948;28;20379;-70
2021/07/25 01:11:32;;;;;;;73.30;44.50;;;17.80;99.90;;;;;;5033323;28;20474;-70
2021/07/25 01:14:01;;;;;;;65.57;42.03;;;17.80;99.50;;;;;;5032714;28;20883;-70
2021/07/25 01:16:27;;;;;;;71.03;44.20;;;17.70;99.40;;;;;;5033167;28;20864;-70
2021/07/25 01:18:52;;;;;;;74.07;43.53;;;17.60;99.60;;;;;;5032693;28;20414;-71
2021/07/25 01:21:19;;;;;;;74.72;45.47;;;17.60;99.90;;;;;;5033386;28;20386;-70
2021/07/25 01:23:46;;;;;;;74.50;43.75;;;17.50;99.90;;;;;;5047295;28;20542;-70
2021/07/25 01:26:14;;;;;;;69.22;43.58;;;17.60;99.90;;;;;;5053059;28;20869;-71
2021/07/25 01:28:48;;;;;;;77.43;44.60;;;17.60;99.90;;;;;;5050741;28;20405;-71
2021/07/25 01:31:18;;;;;;;77.33;45.20;;;17.50;99.90;;;;;;5036997;28;20399;-71
2021/07/25 01:33:47;;;;;;;82.07;45.05;;;17.50;99.90;;;;;;5031328;28;20418;-70
2021/07/25 01:36:14;;;;;;;77.17;46.53;;;17.40;99.90;;;;;;5032741;28;20462;-70
2021/07/25 01:38:40;;;;;;;82.03;46.15;;;17.40;99.90;;;;;;5032245;28;20840;-70
2021/07/25 01:41:07;;;;;;;82.85;47.47;;;17.40;99.90;;;;;;5031480;28;20753;-69
2021/07/25 01:43:37;;;;;;;74.97;43.88;;;17.50;99.90;;;;;;5032372;28;20401;-69
2021/07/25 01:46:03;;;;;;;77.15;44.47;;;17.50;99.90;;;;;;5032480;28;20406;-69
2021/07/25 01:48:28;;;;;;;69.45;45.10;;;17.70;99.90;;;;;;5032299;28;20744;-69
2021/07/25 01:50:54;;;;;;;75.90;44.65;;;17.70;99.90;;;;;;5032499;28;20399;-70
2021/07/25 01:53:20;;;;;;;78.17;46.50;;;17.70;99.90;;;;;;5032376;28;20391;-70
2021/07/25 01:55:45;;;;;;;70.83;44.53;;;17.80;99.90;;;;;;5033171;28;20473;-70
2021/07/25 01:58:11;;;;;;;73.80;44.80;;;17.80;99.90;;;;;;5032321;28;20914;-71
2021/07/25 02:00:37;;;;;;;75.23;44.27;;;17.90;99.90;;;;;;5039932;28;20398;-69
2021/07/25 02:03:03;;;;;;;76.57;44.65;;;17.90;99.90;;;;;;5043394;28;20399;-69
2021/07/25 02:05:28;;;;;;;74.05;45.03;;;18.00;99.90;;;;;;5032165;28;20498;-70
2021/07/25 02:07:54;;;;;;;64.93;41.87;;;18.00;99.90;;;;;;5031804;28;20398;-69
2021/07/25 02:10:21;;;;;;;71.77;44.03;;;18.00;99.90;;;;;;5032429;28;20839;-70
2021/07/25 02:12:47;;;;;;;67.13;43.47;;;18.00;99.90;;;;;;5032130;28;20491;-70
2021/07/25 02:15:13;;;;;;;65.03;41.80;;;18.00;99.90;;;;;;5032836;28;20470;-72
2021/07/25 02:17:38;;;;;;;69.10;43.33;;;18.10;99.90;;;;;;5032498;28;20411;-71
2021/07/25 02:20:05;;;;;;;63.97;42.00;;;18.10;99.50;;;;;;5034460;28;20414;-70
2021/07/25 02:22:30;;;;;;;62.50;39.75;;;18.10;99.00;;;;;;5048017;28;20391;-70
2021/07/25 02:24:56;;;;;;;61.23;40.47;;;18.00;98.70;;;;;;5031956;28;20719;-70
2021/07/25 02:27:21;;;;;;;66.30;41.75;;;18.00;98.70;;;;;;5031782;28;20394;-70
2021/07/25 02:29:47;;;;;;;63.67;41.13;;;18.00;98.50;;;;;;5031342;28;20791;-70
2021/07/25 02:32:14;;;;;;;65.37;41.90;;;18.00;98.60;;;;;;5031369;28;20817;-70
2021/07/25 02:34:41;;;;;;;62.28;40.05;;;17.90;98.60;;;;;;5031576;28;20387;-70
2021/07/25 02:37:11;;;;;;;54.85;39.00;;;17.90;98.40;;;;;;5031677;28;20379;-70
2021/07/25 02:39:36;;;;;;;59.55;38.85;;;17.80;97.70;;;;;;5031212;28;20413;-70
2021/07/25 02:42:02;;;;;;;63.30;39.27;;;17.70;98.00;;;;;;5049511;28;20393;-70
2021/07/25 02:44:27;;;;;;;64.93;41.90;;;17.60;98.30;;;;;;5033356;28;20399;-70
2021/07/25 02:46:53;;;;;;;67.18;40.80;;;17.50;98.90;;;;;;5031460;28;20387;-70
2021/07/25 02:49:18;;;;;;;69.73;42.10;;;17.50;99.60;;;;;;5031404;28;20754;-70
2021/07/25 02:51:44;;;;;;;63.83;41.92;;;17.40;99.70;;;;;;5031364;28;20475;-70
2021/07/25 02:54:10;;;;;;;72.43;41.88;;;17.30;99.90;;;;;;5031096;28;20387;-70
2021/07/25 02:56:35;;;;;;;67.07;42.10;;;17.30;99.90;;;;;;5013466;28;20410;-70
2021/07/25 02:59:01;;;;;;;65.63;41.83;;;17.20;99.90;;;;;;5017393;28;20405;-70
2021/07/25 03:01:26;;;;;;;71.55;42.08;;;17.20;99.90;;;;;;5037681;28;20405;-70
2021/07/25 03:03:52;;;;;;;66.43;40.80;;;17.20;99.90;;;;;;5050838;28;20385;-70
2021/07/25 03:06:17;;;;;;;70.15;43.47;;;17.20;99.90;;;;;;5037142;28;20406;-70
2021/07/25 03:08:43;;;;;;;64.40;39.60;;;17.20;99.90;;;;;;5030694;28;20855;-70
2021/07/25 03:11:09;;;;;;;76.63;43.93;;;17.10;99.90;;;;;;5031186;28;20407;-70
2021/07/25 03:13:36;;;;;;;77.50;43.92;;;17.00;99.90;;;;;;5031120;28;20402;-70
2021/07/25 03:16:06;;;;;;;82.97;44.92;;;17.00;99.90;;;;;;5031136;28;20887;-70
2021/07/25 03:18:32;;;;;;;67.93;42.22;;;17.00;99.90;;;;;;5031265;28;20434;-71
2021/07/25 03:20:58;;;;;;;71.78;43.05;;;17.00;99.90;;;;;;5032957;28;20511;-70
2021/07/25 03:23:24;;;;;;;74.97;44.00;;;17.00;99.90;;;;;;5029299;23;20473;-74
2021/07/25 03:25:50;;;;;;;73.43;42.43;;;17.00;99.90;;;;;;5011358;28;20907;-74
2021/07/25 03:28:15;;;;;;;84.13;45.28;;;17.00;99.90;;;;;;5011336;28;20383;-74
2021/07/25 03:30:41;;;;;;;76.32;43.92;;;17.00;99.90;;;;;;5017387;28;20399;-74
2021/07/25 03:33:08;;;;;;;72.45;43.00;;;17.00;99.90;;;;;;5030949;28;20448;-76
2021/07/25 03:35:35;;;;;;;73.90;43.20;;;16.90;99.90;;;;;;5031110;28;20418;-75
2021/07/25 03:38:00;;;;;;;76.03;42.97;;;16.90;99.90;;;;;;5030808;28;20410;-75
2021/07/25 03:40:27;;;;;;;75.07;42.80;;;16.90;99.90;;;;;;5031961;28;20395;-76
2021/07/25 03:42:52;;;;;;;78.30;43.97;;;16.90;99.90;;;;;;5013024;28;20489;-74
2021/07/25 03:45:18;;;;;;;67.60;41.00;;;16.90;99.90;;;;;;5030826;28;20850;-74
2021/07/25 03:47:44;;;;;;;69.70;41.15;;;16.90;99.90;;;;;;5030602;28;20390;-73
2021/07/25 03:50:09;;;;;;;78.25;45.25;;;16.90;99.90;;;;;;5030702;28;20918;-74
2021/07/25 03:52:36;;;;;;;76.95;44.00;;;16.80;99.90;;;;;;5030575;28;20798;-73
2021/07/25 03:55:05;;;;;;;70.80;41.50;;;16.80;99.90;;;;;;5030889;28;20387;-73
2021/07/25 03:57:32;;;;;;;72.13;42.35;;;16.80;99.90;;;;;;5030212;28;20402;-74
2021/07/25 03:59:58;;;;;;;76.10;42.05;;;16.80;99.90;;;;;;5031020;28;20736;-74
2021/07/25 04:02:23;;;;;;;67.80;40.20;;;16.90;99.90;;;;;;5030831;28;20399;-74
2021/07/25 04:04:49;;;;;;;72.27;40.63;;;16.90;99.90;;;;;;5012690;28;20466;-74
2021/07/25 04:07:14;;;;;;;74.15;40.35;;;16.90;99.90;;;;;;5030675;28;20425;-74
2021/07/25 04:09:40;;;;;;;64.20;39.60;;;16.90;99.90;;;;;;5030276;28;20395;-72
2021/07/25 04:12:06;;;;;;;69.27;41.33;;;16.90;99.90;;;;;;5030009;28;20395;-74
2021/07/25 04:14:31;;;;;;;66.90;38.87;;;16.90;99.90;;;;;;5030405;28;20860;-73
2021/07/25 04:16:57;;;;;;;63.57;38.30;;;16.90;99.90;;;;;;5030381;28;20475;-72
2021/07/25 04:19:22;;;;;;;67.38;38.58;;;16.90;99.90;;;;;;5030297;28;20970;-73
2021/07/25 04:21:48;;;;;;;65.30;37.80;;;17.00;99.90;;;;;;5012478;28;20395;-74
2021/07/25 04:24:14;;;;;;;66.27;38.10;;;16.90;99.90;;;;;;5031123;28;20387;-74
2021/07/25 04:26:39;;;;;;;55.97;35.67;;;17.00;99.90;;;;;;5012666;28;20486;-73
2021/07/25 04:29:05;;;;;;;57.20;35.65;;;17.00;99.90;;;;;;5030527;28;20383;-73
2021/07/25 04:31:31;;;;;;;61.22;36.88;;;17.10;99.90;;;;;;5030193;28;20399;-73
2021/07/25 04:33:58;;;;;;;55.55;35.22;;;17.10;99.90;;;;;;5030673;28;20899;-74
2021/07/25 04:36:25;;;;;;;57.33;32.53;;;17.10;99.90;;;;;;5030467;28;20388;-74
2021/07/25 04:38:55;;;;;;;52.80;33.20;;;17.20;99.90;;;;;;5030238;28;20413;-74
2021/07/25 04:41:24;;;;;;;51.28;32.00;;;17.20;99.90;;;;;;5029870;28;20394;-74
2021/07/25 04:44:16;;;;;;;50.35;31.95;;;17.30;99.90;;;;;;5030178;28;20379;-74
2021/07/25 04:46:52;;;;;;;46.90;31.67;;;17.30;99.90;;;;;;5023643;28;20891;-73
2021/07/25 04:49:19;;;;;;;45.95;30.45;;;17.40;99.90;;;;;;5030110;28;20760;-73
2021/07/25 04:51:47;;;;;;;43.13;29.45;;;17.40;99.90;;;;;;5029574;28;20414;-74
2021/07/25 04:54:16;;;;;;;45.83;28.30;;;17.50;99.90;;;;;;5030274;28;20387;-73
2021/07/25 04:56:57;;;;;;;44.53;28.60;;;17.40;99.90;;;;;;5030176;28;20387;-74
2021/07/25 04:59:31;;;;;;;40.65;28.27;;;17.50;99.90;;;;;;5025538;28;20461;-74
2021/07/25 05:02:00;;;;;;;40.47;28.00;;;17.60;99.90;;;;;;5029767;28;20812;-73
2021/07/25 05:04:30;;;;;;;42.40;28.00;;;17.60;99.60;;;;;;5039391;28;20394;-73
2021/07/25 05:06:56;;;;;;;48.72;28.42;;;17.60;99.10;;;;;;5033811;28;20937;-74
2021/07/25 05:09:22;;;;;;;41.38;28.10;;;17.70;98.00;;;;;;5036997;28;20395;-75
2021/07/25 05:12:09;;;;;;;36.10;25.70;;;17.70;96.30;;;;;;5036698;28;20399;-74
2021/07/25 05:14:43;;;;;;;42.80;26.63;;;17.80;94.40;;;;;;5037259;28;20422;-73
2021/07/25 05:17:20;;;;;;;35.87;25.63;;;17.80;93.70;;;;;;5039377;28;20375;-74
2021/07/25 05:19:55;;;;;;;39.15;25.50;;;17.90;91.30;;;;;;5034974;28;20899;-74
2021/07/25 05:22:38;;;;;;;38.72;25.00;;;17.90;90.20;;;;;;5032715;28;20775;-74
2021/07/25 05:25:06;;;;;;;37.50;24.20;;;18.00;89.20;;;;;;5033641;28;20402;-73
2021/07/25 05:27:47;;;;;;;33.88;23.27;;;18.00;89.00;;;;;;5015686;28;20391;-74
2021/07/25 05:30:16;;;;;;;34.45;24.20;;;18.10;88.50;;;;;;5033595;28;20399;-73
2021/07/25 05:32:41;;;;;;;36.40;24.38;;;18.20;86.30;;;;;;5032872;28;20395;-74
2021/07/25 05:35:08;;;;;;;35.15;23.58;;;18.30;84.50;;;;;;5033348;28;20418;-73
2021/07/25 05:37:34;;;;;;;30.45;22.65;;;18.30;84.30;;;;;;5032814;28;20379;-74
2021/07/25 05:39:59;;;;;;;32.00;20.98;;;18.40;82.80;;;;;;5033744;28;20944;-74
2021/07/25 05:42:25;;;;;;;30.92;21.77;;;18.50;82.50;;;;;;5033037;28;20403;-74
2021/07/25 05:44:51;;;;;;;32.50;22.17;;;18.60;81.90;;;;;;5033380;28;20387;-74
2021/07/25 05:47:17;;;;;;;33.28;21.90;;;18.70;77.10;;;;;;5033397;28;20740;-74
2021/07/25 05:49:42;;;;;;;31.30;20.50;;;18.80;75.80;;;;;;5033385;28;20390;-74
2021/07/25 05:52:08;;;;;;;30.20;20.20;;;18.90;74.80;;;;;;5032759;28;20800;-76
2021/07/25 05:54:33;;;;;;;25.83;19.67;;;18.90;71.70;;;;;;5032853;28;20419;-74
2021/07/25 05:56:59;;;;;;;30.55;19.10;;;19.00;71.20;;;;;;5027591;28;20397;-75
2021/07/25 05:59:25;;;;;;;25.63;17.67;;;19.00;70.60;;;;;;5029959;28;20491;-76
2021/07/25 06:01:52;;;;;;;25.02;17.35;;;19.10;69.00;;;;;;5032412;28;20403;-77
2021/07/25 06:04:17;;;;;;;27.58;16.85;;;19.20;67.20;;;;;;5033246;28;20467;-75
2021/07/25 06:06:43;;;;;;;26.35;16.98;;;19.20;66.70;;;;;;5032322;28;20391;-76
2021/07/25 06:09:08;;;;;;;24.83;16.73;;;19.30;64.10;;;;;;5015304;28;20441;-76
2021/07/25 06:11:35;;;;;;;23.27;16.43;;;19.40;62.30;;;;;;5032566;28;20462;-75
2021/07/25 06:14:01;;;;;;;27.77;16.27;;;19.40;60.80;;;;;;5032626;28;20403;-75
2021/07/25 06:16:27;;;;;;;22.60;16.13;;;19.50;60.00;;;;;;5032263;28;20926;-76
2021/07/25 06:18:52;;;;;;;21.25;15.70;;;19.60;58.90;;;;;;5031025;28;20415;-77
2021/07/25 06:21:19;;;;;;;21.77;15.90;;;19.70;57.90;;;;;;5031804;28;20470;-76
2021/07/25 06:23:50;;;;;;;23.27;15.60;;;19.70;56.70;;;;;;5029621;28;20455;-75
2021/07/25 06:26:16;;;;;;;23.38;14.98;;;19.80;55.80;;;;;;5012266;28;20391;-75
2021/07/25 06:28:42;;;;;;;24.53;15.07;;;19.90;53.90;;;;;;5013464;28;20385;-75
2021/07/25 06:31:07;;;;;;;25.03;15.23;;;20.00;51.80;;;;;;5027360;28;20398;-74
2021/07/25 06:33:33;;;;;;;20.23;13.90;;;20.00;51.30;;;;;;5032249;28;20387;-76
2021/07/25 06:35:58;;;;;;;24.17;14.43;;;20.10;51.20;;;;;;5032232;28;20753;-76
2021/07/25 06:38:24;;;;;;;24.97;14.60;;;20.10;50.00;;;;;;5031922;28;20445;-77
2021/07/25 06:40:52;;;;;;;22.27;14.77;;;20.20;49.80;;;;;;5032249;28;20390;-76
2021/07/25 06:43:19;;;;;;;23.38;14.00;;;20.20;48.70;;;;;;5029851;28;20390;-76
2021/07/25 06:45:45;;;;;;;21.23;14.60;;;20.30;48.30;;;;;;5030227;28;20869;-76
2021/07/25 06:48:20;;;;;;;21.02;14.43;;;20.30;48.50;;;;;;5031454;28;20914;-75
2021/07/25 06:50:50;;;;;;;17.40;13.00;;;20.40;48.70;;;;;;5027395;28;20480;-75
2021/07/25 06:53:17;;;;;;;20.48;13.80;;;20.50;48.00;;;;;;5017388;28;20484;-75
2021/07/25 06:55:43;;;;;;;18.70;13.70;;;20.70;47.20;;;;;;5030869;28;20414;-76
2021/07/25 06:58:09;;;;;;;23.33;13.98;;;20.70;46.10;;;;;;5031292;28;20407;-76
2021/07/25 07:00:34;;;;;;;20.52;14.13;;;20.80;45.40;;;;;;5026103;28;20421;-76
2021/07/25 07:03:00;;;;;;;18.77;13.60;;;20.90;45.00;;;;;;5031419;28;20398;-78
2021/07/25 07:05:31;;;;;;;20.20;13.27;;;20.90;44.50;;;;;;5031530;28;20434;-77
2021/07/25 07:07:59;;;;;;;20.33;13.02;;;21.00;44.50;;;;;;5013262;28;20504;-77
2021/07/25 07:10:28;;;;;;;20.30;13.07;;;21.00;44.10;;;;;;5028863;28;20402;-76
2021/07/25 07:12:55;;;;;;;26.25;13.75;;;21.10;42.80;;;;;;5032060;28;20389;-79
2021/07/25 07:15:22;;;;;;;19.90;12.50;;;21.20;42.50;;;;;;5037086;28;20401;-77
2021/07/25 07:17:51;;;;;;;20.15;12.45;;;21.20;41.90;;;;;;5019053;28;20439;-74
2021/07/25 07:20:18;;;;;;;18.20;11.40;;;21.30;41.90;;;;;;5030989;28;20379;-74
2021/07/25 07:22:53;;;;;;;16.00;10.43;;;21.40;41.50;;;;;;5026539;28;20449;-75
2021/07/25 07:25:19;;;;;;;17.52;10.98;;;21.50;40.10;;;;;;5032999;28;20383;-76
2021/07/25 07:27:44;;;;;;;13.00;9.43;;;21.70;39.60;;;;;;5027186;28;20395;-76
2021/07/25 07:30:10;;;;;;;11.53;9.00;;;21.80;39.30;;;;;;5030954;28;20390;-77
2021/07/25 07:32:36;;;;;;;12.20;8.43;;;21.80;38.50;;;;;;5012152;28;20457;-75
2021/07/25 07:35:01;;;;;;;12.40;7.43;;;21.90;36.40;;;;;;5013335;28;20387;-76
2021/07/25 07:37:27;;;;;;;10.97;6.50;;;21.90;35.40;;;;;;5030611;28;20395;-76
2021/07/25 07:39:53;;;;;;;9.45;7.10;;;22.00;34.50;;;;;;5029439;28;20505;-74
2021/07/25 07:42:18;;;;;;;17.00;7.43;;;22.10;34.90;;;;;;5030682;28;20532;-75
2021/07/25 07:44:44;;;;;;;9.37;6.70;;;22.20;34.20;;;;;;5024065;28;20396;-74
2021/07/25 07:47:10;;;;;;;11.68;7.35;;;22.20;33.70;;;;;;5028890;28;20383;-75
2021/07/25 07:49:36;;;;;;;10.45;7.25;;;22.10;33.60;;;;;;5030628;28;20390;-76
2021/07/25 07:52:03;;;;;;;9.45;7.40;;;22.20;34.00;;;;;;5030264;28;20379;-76
2021/07/25 07:54:28;;;;;;;16.17;7.60;;;22.10;33.80;;;;;;5030194;28;20391;-76
2021/07/25 07:56:54;;;;;;;10.57;7.05;;;22.20;33.80;;;;;;5029590;28;20729;-76
2021/07/25 07:59:21;;;;;;;13.43;7.53;;;22.30;33.60;;;;;;5030336;28;20407;-76
2021/07/25 08:01:46;;;;;;;12.70;7.43;;;22.40;33.30;;;;;;5030191;28;20428;-76
2021/07/25 08:04:12;;;;;;;15.00;7.47;;;22.50;33.70;;;;;;5022168;28;20789;-74
2021/07/25 08:06:38;;;;;;;12.45;7.93;;;22.60;33.50;;;;;;5030390;28;20843;-77
2021/07/25 08:09:03;;;;;;;11.97;7.40;;;22.60;32.70;;;;;;5030662;28;20713;-76
2021/07/25 08:11:29;;;;;;;16.05;8.63;;;22.60;33.30;;;;;;5029305;28;20764;-77
2021/07/25 08:13:54;;;;;;;12.30;7.70;;;22.60;33.10;;;;;;5022313;28;20486;-76
2021/07/25 08:16:20;;;;;;;14.88;8.18;;;22.60;33.40;;;;;;5018558;28;20425;-75
2021/07/25 08:18:46;;;;;;;11.23;8.20;;;22.70;33.20;;;;;;5009638;28;20419;-75
2021/07/25 08:21:11;;;;;;;12.80;7.37;;;22.80;32.20;;;;;;5010449;28;20410;-75
2021/07/25 08:23:37;;;;;;;13.95;7.90;;;22.90;32.20;;;;;;5010185;28;20397;-74
2021/07/25 08:26:02;;;;;;;13.33;7.07;;;22.90;32.70;;;;;;5009616;28;20424;-76
2021/07/25 08:28:30;;;;;;;17.25;8.10;;;23.00;32.20;;;;;;5011165;28;20408;-75
2021/07/25 08:30:56;;;;;;;12.13;8.10;;;23.10;31.90;;;;;;5011296;28;20392;-76
2021/07/25 08:33:21;;;;;;;11.30;7.43;;;23.10;31.50;;;;;;5027360;28;20404;-76
2021/07/25 08:35:47;;;;;;;12.05;7.57;;;23.30;31.70;;;;;;5011635;28;20380;-77
2021/07/25 08:38:13;;;;;;;13.60;7.90;;;23.20;31.40;;;;;;5002202;28;20514;-76
2021/07/25 08:40:40;;;;;;;10.45;6.75;;;23.20;31.40;;;;;;5010778;28;20450;-75
2021/07/25 08:43:10;;;;;;;11.38;7.93;;;23.30;32.00;;;;;;5012196;28;20502;-76
2021/07/25 08:45:38;;;;;;;12.60;7.40;;;23.40;32.00;;;;;;5021247;28;20389;-76
2021/07/25 08:48:17;;;;;;;15.55;7.70;;;23.40;30.90;;;;;;5016536;28;20474;-78
2021/07/25 08:51:04;;;;;;;13.30;7.50;;;23.40;31.40;;;;;;5021805;28;20404;-77
2021/07/25 08:53:34;;;;;;;12.60;7.28;;;23.50;31.20;;;;;;5062651;23;20434;-78
2021/07/25 08:56:01;;;;;;;10.35;7.80;;;23.50;31.00;;;;;;5045654;28;20457;-79
2021/07/25 08:58:28;;;;;;;15.13;7.60;;;23.70;30.20;;;;;;5034284;28;20815;-75
2021/07/25 09:00:55;;;;;;;10.03;7.73;;;23.60;29.10;;;;;;5028110;28;20393;-77
2021/07/25 09:03:21;;;;;;;14.65;8.18;;;23.60;29.90;;;;;;5013778;28;20394;-76
2021/07/25 09:05:47;;;;;;;11.07;8.00;;;23.70;30.20;;;;;;5010591;28;20381;-76
2021/07/25 09:08:14;;;;;;;11.70;7.80;;;23.80;30.10;;;;;;4994552;28;20502;-75
2021/07/25 09:10:40;;;;;;;9.87;7.53;;;23.80;29.60;;;;;;4995373;28;20421;-76
2021/07/25 09:13:06;;;;;;;14.38;8.32;;;24.00;29.80;;;;;;5014258;28;20780;-76
2021/07/25 09:15:35;;;;;;;9.68;7.30;;;24.00;28.90;;;;;;5016765;28;20762;-76
2021/07/25 09:18:03;;;;;;;11.43;7.00;;;24.20;28.30;;;;;;5013876;28;20781;-76
2021/07/25 09:20:36;;;;;;;13.32;7.30;;;24.30;27.70;;;;;;5014240;28;20415;-75
2021/07/25 09:23:06;;;;;;;9.40;6.00;;;24.30;27.00;;;;;;5029078;28;20389;-75
2021/07/25 09:25:39;;;;;;;15.38;6.10;;;24.20;26.40;;;;;;5014110;28;20397;-77
2021/07/25 09:28:11;;;;;;;9.77;5.80;;;24.40;26.70;;;;;;5014375;28;20870;-77
2021/07/25 09:30:37;;;;;;;8.05;5.95;;;24.60;26.90;;;;;;5009706;28;20506;-77
2021/07/25 09:33:24;;;;;;;8.43;5.47;;;24.50;25.60;;;;;;5005362;28;20448;-77
2021/07/25 09:35:50;;;;;;;8.07;5.65;;;24.50;24.90;;;;;;4999780;28;20488;-77
2021/07/25 09:38:17;;;;;;;12.67;6.50;;;24.50;26.00;;;;;;5016203;28;20417;-77
2021/07/25 09:40:44;;;;;;;8.50;6.60;;;24.50;26.80;;;;;;5018027;28;20397;-77
2021/07/25 09:43:20;;;;;;;12.23;5.90;;;24.50;26.80;;;;;;5017535;28;20924;-77
2021/07/25 09:45:55;;;;;;;9.50;5.53;;;24.70;27.00;;;;;;5014122;28;20500;-77
2021/07/25 09:48:27;;;;;;;7.43;5.25;;;24.80;25.50;;;;;;5014644;28;20400;-77
2021/07/25 09:50:57;;;;;;;8.13;5.60;;;24.90;25.30;;;;;;5013240;28;20460;-77
2021/07/25 09:53:22;;;;;;;6.60;5.45;;;25.00;25.10;;;;;;5013095;28;20397;-77
2021/07/25 09:55:49;;;;;;;8.53;5.40;;;25.10;23.60;;;;;;5015189;28;20793;-77
2021/07/25 09:58:15;;;;;;;10.25;5.82;;;25.20;24.20;;;;;;5012610;28;20413;-76
2021/07/25 10:00:43;;;;;;;9.73;5.15;;;25.30;23.80;;;;;;5011921;28;20411;-76
2021/07/25 10:03:18;;;;;;;11.80;5.23;;;25.40;22.80;;;;;;5008782;28;20831;-78
2021/07/25 10:05:50;;;;;;;9.07;5.00;;;25.50;23.00;;;;;;5013015;28;20805;-76
2021/07/25 10:08:23;;;;;;;7.80;4.57;;;25.70;23.10;;;;;;5038130;28;20404;-79
2021/07/25 10:10:54;;;;;;;8.52;5.07;;;25.70;21.90;;;;;;5024910;28;20397;-79
2021/07/25 10:13:22;;;;;;;9.07;5.10;;;25.80;21.00;;;;;;5019414;28;20416;-78
2021/07/25 10:16:01;;;;;;;9.57;4.60;;;26.20;20.40;;;;;;5021175;28;20404;-78
2021/07/25 10:18:27;;;;;;;10.77;4.20;;;26.70;19.30;;;;;;5011287;28;20427;-78
2021/07/25 10:20:58;;;;;;;5.40;3.90;;;27.00;17.70;;;;;;5017127;28;20571;-80
2021/07/25 10:23:36;;;;;;;7.43;4.60;;;27.10;17.50;;;;;;5013532;28;20408;-78
2021/07/25 10:26:02;;;;;;;8.63;4.03;;;27.20;17.60;;;;;;5014904;28;20385;-78
2021/07/25 10:28:32;;;;;;;6.03;3.90;;;27.60;17.10;;;;;;5013999;28;20425;-77
2021/07/25 10:30:59;;;;;;;6.25;3.90;;;27.50;17.20;;;;;;5014183;28;20424;-79
2021/07/25 10:33:27;;;;;;;7.07;4.60;;;27.50;16.30;;;;;;5030200;28;20824;-77
2021/07/25 10:35:55;;;;;;;4.00;3.40;;;27.40;16.70;;;;;;5015651;28;20465;-77
2021/07/25 10:38:21;;;;;;;4.38;3.50;;;27.50;15.10;;;;;;5015988;28;20408;-78
2021/07/25 10:40:49;;;;;;;4.97;4.00;;;27.50;14.70;;;;;;5015079;28;20482;-78
2021/07/25 10:43:17;;;;;;;6.05;3.83;;;27.50;14.80;;;;;;5015609;28;20528;-78
2021/07/25 10:46:03;;;;;;;5.65;3.70;;;27.60;14.90;;;;;;5017552;28;20381;-77
2021/07/25 10:48:29;;;;;;;5.05;3.97;;;27.60;15.50;;;;;;5014796;28;20393;-77
2021/07/25 10:51:09;;;;;;;6.90;4.00;;;28.00;15.20;;;;;;5017906;28;20813;-78
2021/07/25 10:53:35;;;;;;;14.95;10.82;;;27.80;15.00;;;;;;5016919;28;20408;-78
2021/07/25 10:56:01;;;;;;;41.15;29.95;;;27.70;15.60;;;;;;5016847;28;20419;-77
2021/07/25 10:58:27;;;;;;;5.77;3.70;;;27.90;15.50;;;;;;5014497;28;20409;-79
2021/07/25 11:00:58;;;;;;;10.32;7.00;;;27.90;14.90;;;;;;5017549;28;21343;-79
2021/07/25 11:03:29;;;;;;;11.57;8.45;;;27.90;15.70;;;;;;5017964;28;20750;-79
2021/07/25 11:06:07;;;;;;;9.23;5.60;;;27.90;15.30;;;;;;5015249;28;20440;-79
2021/07/25 11:08:43;;;;;;;6.80;4.30;;;28.10;16.00;;;;;;5023764;28;20597;-78
2021/07/25 11:11:29;;;;;;;17.00;8.75;;;28.30;15.20;;;;;;5024658;28;20401;-77
2021/07/25 11:13:55;;;;;;;17.17;11.70;;;28.50;14.80;;;;;;5025395;28;20397;-78
2021/07/25 11:16:30;;;;;;;5.85;4.50;;;28.60;15.00;;;;;;5013791;28;20412;-77
2021/07/25 11:19:24;;;;;;;10.23;7.50;;;28.50;14.70;;;;;;5007896;28;20463;-77
2021/07/25 11:21:55;;;;;;;9.75;6.00;;;28.40;15.10;;;;;;5013523;28;20395;-77
2021/07/25 11:24:26;;;;;;;9.30;6.97;;;28.20;14.90;;;;;;5011985;28;20511;-78
2021/07/25 11:26:53;;;;;;;5.28;3.63;;;28.10;15.10;;;;;;5029147;28;20933;-78
2021/07/25 11:29:40;;;;;;;7.25;5.07;;;28.00;14.90;;;;;;5011615;28;20404;-78
2021/07/25 11:32:38;;;;;;;5.55;3.83;;;28.20;14.50;;;;;;5043894;28;20495;-78
2021/07/25 11:35:05;;;;;;;5.22;4.80;;;28.30;13.60;;;;;;5010608;28;21032;-77
2021/07/25 11:37:38;;;;;;;7.10;5.35;;;28.50;14.00;;;;;;5011310;28;20400;-77
2021/07/25 11:40:06;;;;;;;9.65;7.78;;;28.30;12.30;;;;;;5010873;28;20412;-77
2021/07/25 11:42:33;;;;;;;5.63;4.47;;;28.20;12.70;;;;;;5015001;28;20917;-78
2021/07/25 11:45:06;;;;;;;12.10;8.77;;;28.20;13.40;;;;;;5011778;28;20450;-77
2021/07/25 11:47:33;;;;;;;5.07;3.10;;;28.40;11.40;;;;;;5010068;28;20401;-76
2021/07/25 11:49:59;;;;;;;9.35;7.45;;;28.30;11.60;;;;;;5017096;28;20514;-77
2021/07/25 11:52:27;;;;;;;4.60;3.20;;;28.30;12.10;;;;;;5014637;28;20405;-77
2021/07/25 11:54:53;;;;;;;7.53;3.50;;;28.00;12.40;;;;;;5014353;28;20451;-77
2021/07/25 11:57:24;;;;;;;3.30;3.00;;;27.90;12.90;;;;;;5013231;28;20554;-77
2021/07/25 11:59:52;;;;;;;9.50;3.30;;;28.00;14.00;;;;;;5006319;28;20405;-76
2021/07/25 12:02:23;;;;;;;4.95;3.45;;;27.80;13.00;;;;;;5009472;28;20397;-77
2021/07/25 12:04:48;;;;;;;24.85;17.15;;;27.70;13.40;;;;;;5011040;28;20403;-75
2021/07/25 12:07:15;;;;;;;7.18;3.80;;;27.70;13.40;;;;;;5012126;28;20801;-77
2021/07/25 12:09:50;;;;;;;13.02;8.18;;;27.70;12.60;;;;;;5026667;28;20435;-75
2021/07/25 12:12:21;;;;;;;5.93;3.35;;;27.80;12.80;;;;;;5011219;28;20453;-76
2021/07/25 12:14:49;;;;;;;3.47;3.03;;;27.80;12.90;;;;;;5010897;28;20392;-77
2021/07/25 12:17:52;;;;;;;3.88;3.30;;;27.80;12.20;;;;;;5011321;28;20405;-77
2021/07/25 12:20:26;;;;;;;8.95;4.88;;;27.70;13.00;;;;;;5015195;28;20407;-78
2021/07/25 12:22:59;;;;;;;4.60;2.80;;;27.80;12.70;;;;;;5014461;28;20727;-76
2021/07/25 12:25:26;;;;;;;3.65;3.00;;;28.10;12.40;;;;;;5015198;28;20387;-76
2021/07/25 12:28:17;;;;;;;4.70;3.10;;;28.20;13.30;;;;;;5014348;28;20392;-76
2021/07/25 12:30:57;;;;;;;3.57;2.80;;;28.30;11.70;;;;;;5006470;28;20885;-76
2021/07/25 12:33:24;;;;;;;3.40;3.00;;;28.50;10.50;;;;;;5006836;28;20471;-76
2021/07/25 12:35:50;;;;;;;5.47;3.00;;;28.60;10.60;;;;;;5014367;28;20472;-77
2021/07/25 12:38:17;;;;;;;5.07;3.10;;;28.80;11.50;;;;;;5014587;28;20499;-76
2021/07/25 12:41:00;;;;;;;2.60;2.40;;;28.80;10.50;;;;;;5014212;28;20405;-77